Check out our new BloomSky Weather System.

Active alerts


No alerts


Thunder radar  blitzortung!


Rain radar more information rain snow radar


Visit our other weather sites:

Template documentation
and downloads

And another site



Nearby METAR Reports

   
KIAH - Houston, TX
Updated: Apr 20 2018 10:53 pm
Mostly Cloudy  
Mostly Cloudy  
   Wind: ESE 10.4 mph
Wind: ESE 10.4 mph
Temperature: 60.8°F
Dew Point: 51.8°F
Humidity: 72%
Barometer: 30.11 inHg
Clouds: Mostly Cloudy
Visibility: 10 mi
Cloud details: Partly Cloudy 16000 ft,
Mostly Cloudy 25000 ft
KIAH 210353Z 11009KT 10SM SCT160 BKN250 16/11 A3011 RMK AO2 SLP196 T01610111
KCLL - College Station, TX
Updated: Apr 20 2018 10:53 pm
Clear  
Clear  
   Wind: East 8.1 mph
Wind: East 8.1 mph
Temperature: 57.2°F
Dew Point: 48.2°F
Humidity: 72%
Barometer: 30.11 inHg
Clouds: Clear
Visibility: 10 mi
Cloud details: Clear ft
KCLL 210353Z AUTO 10007KT 10SM CLR 14/09 A3011 RMK AO2 SLP193 T01390094
KBPT - Beaumont, TX
Updated: Apr 20 2018 10:53 pm
Clear  
Clear  
   Wind: ESE 8.1 mph
Wind: ESE 8.1 mph
Temperature: 62.6°F
Dew Point: 53.6°F
Humidity: 73%
Barometer: 30.12 inHg
Clouds: Clear
Visibility: 10 mi
Cloud details: Clear ft
KBPT 210353Z AUTO 11007KT 10SM CLR 17/12 A3012 RMK AO2 SLP198 T01670117 $

Script developed by  Saratoga-weather.org Adapted for the template by  Weerstation Leuven

You find our weather info also at:

UK Metoffice

WeatherCloud

Weather Underground

Mid-South Weather Network

AWEKAS

Citizen Weather Observer Program (CWOP)

HAMweather, WeatherForYou, PWS Weather

Equipment we use:

Weather-station
Davis Vantage Vue

Weather-program
Meteohub

Weather-server
Debian 7.9 x86 (Guest)

Provider
DreamHost

Davis Vantage Vue

Meteohub

Debian 7.9 x86 (Guest)

DreamHost